Time;durP1;ratioP1;P1;durP2;ratioP2;P2;SDS_P1;SDS_P2;PMS_P1;PMS_P2;Temp;Humidity;BMP_temperature;BMP_pressure;BME280_temperature;BME280_humidity;BME280_pressure;Samples;Min_cycle;Max_cycle;Signal;HPM_P1;HPM_P2
2022/11/03 00:00:01;;;;;;;3.60;3.30;;;;;;;;;;5004627;28;20033;-70
2022/11/03 00:02:37;;;;;;;4.60;2.97;;;;;;;;;;5021129;28;20562;-69
2022/11/03 00:06:03;;;;;;;3.47;3.10;;;;;;;;;;5002712;28;20119;-69
2022/11/03 00:07:48;;;;;;;3.67;2.53;;;;;;;;;;5020315;28;20090;-69
2022/11/03 00:10:14;;;;;;;2.93;2.70;;;;;;;;;;5003547;28;20044;-68
2022/11/03 00:12:39;;;;;;;2.83;2.63;;;;;;;;;;5005437;28;20060;-70
2022/11/03 00:15:05;;;;;;;5.77;2.70;;;;;;;;;;5005234;28;20039;-69
2022/11/03 00:17:31;;;;;;;4.37;3.17;;;;;;;;;;5005205;28;20029;-68
2022/11/03 00:19:56;;;;;;;3.10;2.80;;;;;;;;;;5005248;28;20041;-69
2022/11/03 00:22:22;;;;;;;5.27;2.77;;;;;;;;;;5021347;28;20037;-70
2022/11/03 00:24:47;;;;;;;3.83;2.87;;;;;;;;;;5004986;28;20417;-69
2022/11/03 00:27:13;;;;;;;5.03;2.97;;;;;;;;;;5003189;28;20033;-69
2022/11/03 00:29:38;;;;;;;4.20;3.20;;;;;;;;;;5004383;28;20051;-69
2022/11/03 00:32:04;;;;;;;3.27;3.03;;;;;;;;;;5004922;28;20044;-68
2022/11/03 00:34:30;;;;;;;4.43;2.90;;;;;;;;;;5010107;28;20053;-69
2022/11/03 00:36:57;;;;;;;5.10;2.83;;;;;;;;;;5000113;28;20414;-69
2022/11/03 00:39:23;;;;;;;3.20;2.90;;;;;;;;;;4984274;28;20033;-69
2022/11/03 00:41:48;;;;;;;3.30;3.10;;;;;;;;;;4984918;28;20048;-69
2022/11/03 00:44:14;;;;;;;5.13;3.30;;;;;;;;;;5017580;28;20040;-70
2022/11/03 00:46:39;;;;;;;3.97;3.27;;;;;;;;;;4984937;28;20136;-69
2022/11/03 00:49:05;;;;;;;3.63;3.33;;;;;;;;;;4984771;28;20052;-70
2022/11/03 00:51:32;;;;;;;4.43;3.33;;;;;;;;;;4984812;28;20519;-69
2022/11/03 00:53:59;;;;;;;3.73;3.43;;;;;;;;;;5001100;28;20068;-70
2022/11/03 00:56:27;;;;;;;4.63;3.37;;;;;;;;;;4984770;28;20029;-71
2022/11/03 00:58:53;;;;;;;3.70;3.40;;;;;;;;;;4984406;28;20033;-68
2022/11/03 01:01:23;;;;;;;3.80;3.50;;;;;;;;;;5000675;28;20046;-68
2022/11/03 01:06:50;;;;;;;3.70;3.27;;;;;;;;;;5015808;28;20044;-67
2022/11/03 01:09:15;;;;;;;3.73;3.10;;;;;;;;;;4999001;28;20494;-69
2022/11/03 01:11:44;;;;;;;3.57;3.20;;;;;;;;;;4983291;28;20038;-69
2022/11/03 01:14:11;;;;;;;4.50;2.93;;;;;;;;;;4983194;28;20676;-70
2022/11/03 01:16:37;;;;;;;3.40;3.10;;;;;;;;;;4983111;28;20061;-70
2022/11/03 01:19:03;;;;;;;4.70;3.33;;;;;;;;;;4983157;28;20480;-69
2022/11/03 01:21:28;;;;;;;3.23;2.93;;;;;;;;;;5016744;28;20356;-70
2022/11/03 01:23:54;;;;;;;4.07;3.00;;;;;;;;;;5000559;28;20471;-69
2022/11/03 01:26:20;;;;;;;3.30;3.00;;;;;;;;;;4984394;28;20041;-69
2022/11/03 01:28:46;;;;;;;3.37;2.50;;;;;;;;;;4984394;28;20040;-70
2022/11/03 01:31:16;;;;;;;2.70;2.20;;;;;;;;;;4984193;28;20041;-70
2022/11/03 01:33:42;;;;;;;3.80;2.30;;;;;;;;;;4987846;28;20084;-69
2022/11/03 01:36:08;;;;;;;3.63;2.00;;;;;;;;;;5003706;28;20067;-70
2022/11/03 01:38:34;;;;;;;3.13;2.10;;;;;;;;;;5003534;28;20049;-69
2022/11/03 01:41:01;;;;;;;2.23;2.03;;;;;;;;;;5003776;28;20557;-70
2022/11/03 01:43:27;;;;;;;2.73;1.83;;;;;;;;;;5003302;28;20475;-70
2022/11/03 01:46:01;;;;;;;2.97;2.30;;;;;;;;;;5036331;28;20122;-69
2022/11/03 01:48:27;;;;;;;4.50;2.63;;;;;;;;;;5019929;28;20061;-70
2022/11/03 01:50:53;;;;;;;3.30;3.00;;;;;;;;;;5003211;28;20045;-69
2022/11/03 01:53:19;;;;;;;3.60;2.30;;;;;;;;;;5019487;28;20466;-69
2022/11/03 01:55:46;;;;;;;2.30;2.10;;;;;;;;;;5003206;28;20033;-69
2022/11/03 01:58:20;;;;;;;2.03;1.80;;;;;;;;;;5003120;28;20051;-70
2022/11/03 02:00:47;;;;;;;2.50;2.27;;;;;;;;;;5019680;28;20045;-69
2022/11/03 02:03:13;;;;;;;2.53;2.33;;;;;;;;;;5018895;28;20041;-69
2022/11/03 02:05:40;;;;;;;3.13;2.53;;;;;;;;;;5003120;28;20118;-69
2022/11/03 02:08:21;;;;;;;2.73;2.53;;;;;;;;;;5019499;28;20040;-69
2022/11/03 02:10:47;;;;;;;3.17;2.67;;;;;;;;;;5002788;28;20442;-69
2022/11/03 02:13:21;;;;;;;3.17;2.60;;;;;;;;;;5035795;28;20039;-69
2022/11/03 02:16:07;;;;;;;2.80;2.60;;;;;;;;;;5011085;28;20471;-70
2022/11/03 02:18:33;;;;;;;3.60;2.60;;;;;;;;;;5018515;28;20041;-69
2022/11/03 02:21:07;;;;;;;4.20;2.80;;;;;;;;;;5000679;28;20029;-69
2022/11/03 02:23:56;;;;;;;2.90;2.70;;;;;;;;;;5016831;28;20094;-69
2022/11/03 02:26:21;;;;;;;2.87;2.60;;;;;;;;;;5016940;28;20037;-68
2022/11/03 02:28:47;;;;;;;3.30;3.00;;;;;;;;;;5016506;28;20048;-70
2022/11/03 02:31:28;;;;;;;3.30;3.00;;;;;;;;;;5016853;28;20471;-69
2022/11/03 02:34:05;;;;;;;4.07;2.50;;;;;;;;;;5000681;28;20170;-69
2022/11/03 02:36:50;;;;;;;3.07;2.87;;;;;;;;;;5035488;28;20036;-69
2022/11/03 02:39:24;;;;;;;2.93;2.73;;;;;;;;;;5002482;28;20490;-70
2022/11/03 02:41:51;;;;;;;3.67;2.90;;;;;;;;;;5018662;28;20025;-69
2022/11/03 02:44:18;;;;;;;4.37;2.93;;;;;;;;;;5002321;28;20072;-69
2022/11/03 02:46:45;;;;;;;3.23;2.97;;;;;;;;;;5018812;28;20033;-69
2022/11/03 02:49:12;;;;;;;5.57;2.90;;;;;;;;;;5002218;28;20120;-69
2022/11/03 02:51:38;;;;;;;3.57;3.17;;;;;;;;;;5001799;28;20483;-70
2022/11/03 02:54:13;;;;;;;3.97;3.20;;;;;;;;;;5000206;28;20045;-69
2022/11/03 02:56:59;;;;;;;4.20;3.00;;;;;;;;;;4999955;28;20474;-69
2022/11/03 02:59:30;;;;;;;8.73;3.27;;;;;;;;;;4999251;28;20041;-70
2022/11/03 03:02:02;;;;;;;3.13;2.87;;;;;;;;;;5001003;28;20033;-69
2022/11/03 03:04:33;;;;;;;4.33;2.70;;;;;;;;;;5017968;28;20032;-69
2022/11/03 03:07:05;;;;;;;2.97;2.78;;;;;;;;;;5018134;28;20047;-69
2022/11/03 03:09:36;;;;;;;2.90;2.60;;;;;;;;;;5001641;28;20135;-69
2022/11/03 03:12:02;;;;;;;2.93;2.73;;;;;;;;;;5001712;28;20045;-69
2022/11/03 03:14:31;;;;;;;2.63;2.43;;;;;;;;;;5001513;28;20036;-69
2022/11/03 03:16:56;;;;;;;4.20;2.50;;;;;;;;;;5017076;28;20143;-70
2022/11/03 03:19:34;;;;;;;2.70;2.50;;;;;;;;;;5001384;28;20485;-70
2022/11/03 03:22:02;;;;;;;2.87;2.67;;;;;;;;;;5017903;28;20147;-70
2022/11/03 03:24:43;;;;;;;3.50;2.67;;;;;;;;;;5001487;28;20287;-70
2022/11/03 03:27:10;;;;;;;4.60;3.10;;;;;;;;;;5001217;28;20044;-70
2022/11/03 03:29:40;;;;;;;2.93;2.73;;;;;;;;;;4988801;28;20046;-69
2022/11/03 03:32:08;;;;;;;3.80;3.13;;;;;;;;;;4995086;28;20053;-69
2022/11/03 03:34:36;;;;;;;3.30;3.00;;;;;;;;;;4994676;28;20060;-70
2022/11/03 03:37:03;;;;;;;3.27;3.03;;;;;;;;;;4994542;28;20467;-69
2022/11/03 03:39:31;;;;;;;3.30;2.80;;;;;;;;;;4994520;28;20042;-69
2022/11/03 03:41:57;;;;;;;3.17;2.70;;;;;;;;;;4994642;28;20045;-70
2022/11/03 03:44:23;;;;;;;3.00;2.77;;;;;;;;;;4994366;28;20184;-68
2022/11/03 03:46:58;;;;;;;3.93;2.80;;;;;;;;;;4978125;28;20034;-68
2022/11/03 03:49:24;;;;;;;12.40;4.77;;;;;;;;;;4994377;28;20057;-69
2022/11/03 03:51:50;;;;;;;2.97;2.67;;;;;;;;;;4994240;28;20034;-69
2022/11/03 03:54:16;;;;;;;7.13;2.57;;;;;;;;;;4994138;28;20033;-69
2022/11/03 03:56:47;;;;;;;3.10;2.37;;;;;;;;;;4978157;28;20041;-68
2022/11/03 03:59:13;;;;;;;4.13;2.60;;;;;;;;;;5011462;28;20132;-70
2022/11/03 04:01:39;;;;;;;3.10;2.80;;;;;;;;;;4978342;28;20428;-67
2022/11/03 04:04:04;;;;;;;3.53;3.07;;;;;;;;;;4970146;28;20184;-69
2022/11/03 04:06:30;;;;;;;7.23;3.00;;;;;;;;;;4981216;28;20041;-68
2022/11/03 04:08:55;;;;;;;5.27;2.90;;;;;;;;;;4997271;28;20037;-69
2022/11/03 04:22:20;;;;;;;5.03;3.33;;;;;;;;;;4997417;28;20128;-69
2022/11/03 04:24:46;;;;;;;2.93;2.73;;;;;;;;;;5013574;28;20483;-65
2022/11/03 04:27:28;;;;;;;3.57;2.70;;;;;;;;;;5015037;28;20492;-72
2022/11/03 04:30:16;;;;;;;3.13;2.83;;;;;;;;;;4984834;28;20135;-65
2022/11/03 04:32:48;;;;;;;3.08;2.63;;;;;;;;;;5001317;28;20552;-65
2022/11/03 04:35:16;;;;;;;3.37;3.07;;;;;;;;;;5001028;28;20144;-65
2022/11/03 04:37:43;;;;;;;6.10;3.10;;;;;;;;;;5017400;28;20412;-65
2022/11/03 04:40:13;;;;;;;3.20;2.90;;;;;;;;;;5017486;28;20037;-65
2022/11/03 04:42:39;;;;;;;4.45;3.13;;;;;;;;;;5001386;28;20084;-65
2022/11/03 04:45:12;;;;;;;3.50;3.07;;;;;;;;;;4992605;28;20064;-65
2022/11/03 04:47:38;;;;;;;4.87;2.73;;;;;;;;;;5017469;28;20037;-66
2022/11/03 04:50:06;;;;;;;2.80;2.50;;;;;;;;;;5000468;28;20056;-66
2022/11/03 04:52:33;;;;;;;2.47;2.27;;;;;;;;;;5009487;28;20030;-66
2022/11/03 04:54:59;;;;;;;6.03;2.60;;;;;;;;;;4981117;28;20125;-64
2022/11/03 04:57:26;;;;;;;6.73;3.00;;;;;;;;;;4986844;28;20026;-65
2022/11/03 04:59:52;;;;;;;3.17;2.77;;;;;;;;;;4995268;28;20455;-65
2022/11/03 05:02:19;;;;;;;5.30;3.13;;;;;;;;;;4995447;28;20061;-65
2022/11/03 05:04:44;;;;;;;4.30;2.10;;;;;;;;;;5011369;28;20136;-65
2022/11/03 05:07:16;;;;;;;4.53;2.60;;;;;;;;;;5012715;28;20125;-65
2022/11/03 05:09:43;;;;;;;5.47;2.10;;;;;;;;;;4977595;28;20054;-64
2022/11/03 05:12:08;;;;;;;2.30;2.20;;;;;;;;;;5015214;28;20040;-65
2022/11/03 05:14:35;;;;;;;3.87;2.10;;;;;;;;;;5010487;28;20415;-65
2022/11/03 05:17:01;;;;;;;2.57;2.20;;;;;;;;;;5034948;28;20037;-65
2022/11/03 05:19:35;;;;;;;2.87;2.20;;;;;;;;;;5034905;28;20106;-64
2022/11/03 05:22:02;;;;;;;3.10;2.40;;;;;;;;;;5000266;28;20139;-64
2022/11/03 05:24:28;;;;;;;2.30;2.10;;;;;;;;;;5005009;28;20475;-64
2022/11/03 05:26:54;;;;;;;4.43;2.10;;;;;;;;;;5028721;28;20029;-65
2022/11/03 05:29:28;;;;;;;9.60;2.17;;;;;;;;;;4986723;28;20065;-64
2022/11/03 05:31:55;;;;;;;3.43;2.50;;;;;;;;;;5003685;28;20066;-65
2022/11/03 05:34:27;;;;;;;3.73;1.90;;;;;;;;;;5002147;28;20145;-64
2022/11/03 05:36:52;;;;;;;6.87;2.07;;;;;;;;;;5002424;28;20038;-64
2022/11/03 05:39:35;;;;;;;2.40;2.00;;;;;;;;;;4987471;28;20526;-64
2022/11/03 05:42:01;;;;;;;3.23;1.90;;;;;;;;;;5011145;28;20069;-64
2022/11/03 05:44:29;;;;;;;7.13;2.77;;;;;;;;;;5020719;28;20060;-65
2022/11/03 05:46:56;;;;;;;6.27;2.03;;;;;;;;;;5004752;28;20047;-65
2022/11/03 05:49:21;;;;;;;3.73;2.07;;;;;;;;;;4986812;28;20506;-65
2022/11/03 05:51:47;;;;;;;10.40;2.90;;;;;;;;;;4971042;28;20029;-65
2022/11/03 05:54:24;;;;;;;2.73;2.00;;;;;;;;;;4994826;28;20100;-65
2022/11/03 05:56:50;;;;;;;6.03;2.30;;;;;;;;;;4978719;28;20464;-65
2022/11/03 05:59:18;;;;;;;4.00;2.20;;;;;;;;;;4978671;28;20044;-65
2022/11/03 06:01:44;;;;;;;2.33;1.90;;;;;;;;;;4995030;28;20072;-65
2022/11/03 06:04:15;;;;;;;2.23;2.03;;;;;;;;;;5027147;28;20139;-65
2022/11/03 06:06:41;;;;;;;5.97;3.50;;;;;;;;;;4977962;28;20048;-65
2022/11/03 06:09:13;;;;;;;5.70;2.70;;;;;;;;;;4970824;28;20348;-65
2022/11/03 06:11:39;;;;;;;8.17;2.03;;;;;;;;;;4986452;28;20426;-65
2022/11/03 06:14:13;;;;;;;3.50;2.30;;;;;;;;;;4971506;28;20045;-72
2022/11/03 06:16:43;;;;;;;8.60;2.47;;;;;;;;;;4965873;28;20053;-65
2022/11/03 06:19:24;;;;;;;7.53;3.05;;;;;;;;;;5013544;28;20033;-65
2022/11/03 06:21:51;;;;;;;5.70;2.90;;;;;;;;;;5007086;28;20037;-65
2022/11/03 06:24:18;;;;;;;3.67;2.70;;;;;;;;;;5020046;28;20044;-65
2022/11/03 06:26:44;;;;;;;6.77;2.73;;;;;;;;;;5002022;28;20034;-65
2022/11/03 06:29:14;;;;;;;7.13;2.10;;;;;;;;;;5003914;28;20041;-64
2022/11/03 06:31:41;;;;;;;3.30;2.60;;;;;;;;;;5011614;28;20526;-64
2022/11/03 06:34:22;;;;;;;8.60;2.40;;;;;;;;;;4969792;28;21437;-66
2022/11/03 06:36:47;;;;;;;3.00;2.47;;;;;;;;;;5007850;28;20132;-65
2022/11/03 06:39:18;;;;;;;4.50;2.40;;;;;;;;;;4992312;28;20121;-65
2022/11/03 06:41:43;;;;;;;;;;;;;;;;;;5008836;28;20127;-65
2022/11/03 06:44:35;;;;;;;3.70;2.50;;;;;;;;;;4998519;28;19913;-64
2022/11/03 06:47:06;;;;;;;6.53;3.13;;;;;;;;;;4967116;28;20542;-63
2022/11/03 06:49:33;;;;;;;7.60;2.75;;;;;;;;;;4973441;28;20042;-63
2022/11/03 06:52:13;;;;;;;8.10;2.80;;;;;;;;;;4969123;28;20033;-64
2022/11/03 06:54:39;;;;;;;6.17;2.47;;;;;;;;;;4981428;28;20137;-65
2022/11/03 06:57:09;;;;;;;7.23;2.70;;;;;;;;;;4985780;28;20116;-65
2022/11/03 06:59:34;;;;;;;6.43;3.10;;;;;;;;;;4985363;28;20124;-65
2022/11/03 07:02:00;;;;;;;10.63;2.70;;;;;;;;;;4999370;28;20121;-66
2022/11/03 07:04:27;;;;;;;7.73;3.13;;;;;;;;;;4950788;28;20168;-66
2022/11/03 07:06:56;;;;;;;3.60;2.90;;;;;;;;;;4986249;28;20046;-64
2022/11/03 07:09:23;;;;;;;5.50;2.97;;;;;;;;;;4964916;28;20464;-64
2022/11/03 07:11:58;;;;;;;6.97;3.00;;;;;;;;;;4998646;28;20046;-64
2022/11/03 07:14:26;;;;;;;7.43;2.80;;;;;;;;;;4978292;28;20068;-64
2022/11/03 07:16:53;;;;;;;3.70;2.90;;;;;;;;;;4976282;28;20034;-66
2022/11/03 07:19:20;;;;;;;7.63;3.17;;;;;;;;;;4981722;28;20150;-63
2022/11/03 07:21:53;;;;;;;4.03;2.87;;;;;;;;;;4986323;28;20042;-70
2022/11/03 07:24:43;;;;;;;3.23;2.77;;;;;;;;;;4989502;28;20563;-65
2022/11/03 07:27:14;;;;;;;5.63;3.27;;;;;;;;;;4989819;28;20062;-64
2022/11/03 07:29:41;;;;;;;5.47;3.33;;;;;;;;;;5004360;28;20045;-65
2022/11/03 07:32:35;;;;;;;4.20;3.03;;;;;;;;;;4998865;28;20038;-65
2022/11/03 07:35:08;;;;;;;5.63;2.80;;;;;;;;;;4987209;28;20500;-65
2022/11/03 07:37:36;;;;;;;4.03;3.10;;;;;;;;;;4976942;28;20036;-65
2022/11/03 07:40:02;;;;;;;3.43;3.13;;;;;;;;;;4969365;28;20454;-66
2022/11/03 07:42:31;;;;;;;4.90;3.20;;;;;;;;;;4991204;28;20044;-66
2022/11/03 07:44:59;;;;;;;11.73;3.28;;;;;;;;;;4957605;28;20098;-65
2022/11/03 07:47:25;;;;;;;7.33;3.03;;;;;;;;;;4990711;28;20588;-65
2022/11/03 07:49:55;;;;;;;5.93;3.40;;;;;;;;;;4974253;28;20125;-66
2022/11/03 07:52:25;;;;;;;6.63;3.63;;;;;;;;;;4973801;28;20062;-65
2022/11/03 07:54:53;;;;;;;5.70;3.20;;;;;;;;;;4941793;28;20042;-66
2022/11/03 07:57:25;;;;;;;4.03;3.27;;;;;;;;;;4973295;28;20052;-66
2022/11/03 07:59:56;;;;;;;5.77;3.30;;;;;;;;;;4941913;28;20034;-65
2022/11/03 08:02:33;;;;;;;11.10;3.70;;;;;;;;;;4992833;28;20042;-66
2022/11/03 08:05:01;;;;;;;8.30;3.10;;;;;;;;;;4961134;28;20084;-65
2022/11/03 08:07:27;;;;;;;6.00;3.57;;;;;;;;;;4977553;28;20042;-62
2022/11/03 08:09:53;;;;;;;6.47;3.40;;;;;;;;;;4945578;28;20058;-63
2022/11/03 08:12:21;;;;;;;11.80;3.80;;;;;;;;;;4992976;28;20034;-65
2022/11/03 08:14:47;;;;;;;10.37;4.33;;;;;;;;;;4945141;28;20038;-64
2022/11/03 08:17:13;;;;;;;7.83;4.30;;;;;;;;;;4994630;28;20030;-64
2022/11/03 08:19:39;;;;;;;9.23;4.40;;;;;;;;;;4977370;28;20046;-64
2022/11/03 08:22:05;;;;;;;11.73;4.10;;;;;;;;;;4959564;28;20089;-64
2022/11/03 08:24:30;;;;;;;5.93;3.77;;;;;;;;;;4993139;28;20048;-64
2022/11/03 08:26:56;;;;;;;8.53;3.90;;;;;;;;;;4975539;28;20045;-64
2022/11/03 08:29:23;;;;;;;10.50;3.33;;;;;;;;;;4960908;28;20053;-64
2022/11/03 08:31:49;;;;;;;5.37;3.20;;;;;;;;;;4994413;28;20359;-64
2022/11/03 08:34:15;;;;;;;6.53;3.30;;;;;;;;;;4985852;28;20514;-64
2022/11/03 08:36:43;;;;;;;4.53;3.50;;;;;;;;;;4980365;28;20061;-64
2022/11/03 08:39:08;;;;;;;10.23;3.57;;;;;;;;;;5029263;28;20033;-64
2022/11/03 08:41:34;;;;;;;4.97;3.70;;;;;;;;;;4996001;28;20025;-64
2022/11/03 08:44:00;;;;;;;8.10;3.57;;;;;;;;;;5016224;28;20468;-64
2022/11/03 08:46:26;;;;;;;8.70;3.60;;;;;;;;;;4999941;28;20038;-64
2022/11/03 08:48:51;;;;;;;12.47;3.47;;;;;;;;;;5015895;28;20037;-64
2022/11/03 08:51:17;;;;;;;13.47;3.47;;;;;;;;;;4983335;28;20098;-64
2022/11/03 08:53:42;;;;;;;14.47;3.50;;;;;;;;;;4999919;28;20045;-65
2022/11/03 08:56:09;;;;;;;5.83;3.37;;;;;;;;;;4983682;28;20037;-64
2022/11/03 08:58:35;;;;;;;5.83;3.30;;;;;;;;;;5034585;28;20036;-64
2022/11/03 09:01:00;;;;;;;5.37;3.27;;;;;;;;;;5035538;28;20455;-63
2022/11/03 09:03:26;;;;;;;5.33;3.30;;;;;;;;;;5035452;28;20107;-64
2022/11/03 09:05:52;;;;;;;10.47;3.77;;;;;;;;;;5018761;28;20189;-63
2022/11/03 09:08:17;;;;;;;5.60;3.73;;;;;;;;;;5052453;28;20041;-64
2022/11/03 09:10:43;;;;;;;11.97;3.97;;;;;;;;;;5019711;28;20072;-64
2022/11/03 09:13:08;;;;;;;9.20;4.10;;;;;;;;;;4999192;28;20030;-64
2022/11/03 09:15:34;;;;;;;9.80;3.85;;;;;;;;;;4997739;28;20100;-64
2022/11/03 09:17:59;;;;;;;14.63;3.60;;;;;;;;;;5005645;28;20041;-64
2022/11/03 09:20:25;;;;;;;12.90;3.73;;;;;;;;;;4998070;28;20127;-63
2022/11/03 09:22:51;;;;;;;12.67;4.13;;;;;;;;;;4981447;28;20037;-62
2022/11/03 09:25:17;;;;;;;6.37;3.53;;;;;;;;;;5031115;28;20503;-63
2022/11/03 09:27:42;;;;;;;8.88;4.00;;;;;;;;;;4997936;28;20382;-64
2022/11/03 09:30:08;;;;;;;7.70;4.17;;;;;;;;;;4997504;28;20045;-63
2022/11/03 09:32:34;;;;;;;9.77;4.10;;;;;;;;;;5012569;28;20029;-63
2022/11/03 09:34:59;;;;;;;4.73;3.80;;;;;;;;;;5011545;28;20054;-63
2022/11/03 09:37:25;;;;;;;8.53;4.37;;;;;;;;;;4963651;28;20049;-63
2022/11/03 09:39:50;;;;;;;8.32;4.20;;;;;;;;;;5026956;28;20034;-63
2022/11/03 09:42:17;;;;;;;12.40;4.22;;;;;;;;;;4993492;28;20394;-63
2022/11/03 09:44:45;;;;;;;6.68;4.78;;;;;;;;;;4977555;28;20115;-62
2022/11/03 09:47:14;;;;;;;11.20;4.47;;;;;;;;;;4978025;28;20038;-61
2022/11/03 09:49:40;;;;;;;9.40;4.60;;;;;;;;;;4977989;28;20462;-64
2022/11/03 09:52:05;;;;;;;10.38;4.30;;;;;;;;;;4978368;28;20034;-64
2022/11/03 09:54:31;;;;;;;15.10;4.88;;;;;;;;;;4962158;28;20057;-63
2022/11/03 09:57:10;;;;;;;10.68;4.20;;;;;;;;;;4979320;28;20034;-64
2022/11/03 09:59:38;;;;;;;9.68;4.13;;;;;;;;;;4995169;28;20092;-68
2022/11/03 10:02:09;;;;;;;8.27;4.13;;;;;;;;;;5012608;28;20509;-63
2022/11/03 10:04:35;;;;;;;18.13;4.30;;;;;;;;;;4979330;28;20049;-62
2022/11/03 10:07:00;;;;;;;6.47;3.83;;;;;;;;;;4979215;28;20045;-64
2022/11/03 10:09:28;;;;;;;6.93;4.82;;;;;;;;;;4995130;28;20038;-64
2022/11/03 10:11:53;;;;;;;10.00;4.15;;;;;;;;;;5011751;28;20053;-64
2022/11/03 10:14:20;;;;;;;11.32;4.47;;;;;;;;;;4999440;28;20037;-64
2022/11/03 10:16:50;;;;;;;11.10;5.30;;;;;;;;;;4998188;28;20124;-63
2022/11/03 10:19:17;;;;;;;16.17;4.95;;;;;;;;;;5014635;28;20136;-64
2022/11/03 10:21:43;;;;;;;9.48;4.80;;;;;;;;;;5032378;28;20043;-64
2022/11/03 10:24:12;;;;;;;19.23;5.90;;;;;;;;;;4998392;28;20076;-65
2022/11/03 10:26:51;;;;;;;15.50;5.13;;;;;;;;;;4997946;28;20041;-63
2022/11/03 10:29:18;;;;;;;15.68;5.57;;;;;;;;;;5014403;28;20049;-64
2022/11/03 10:31:48;;;;;;;10.25;5.22;;;;;;;;;;5014366;28;20034;-63
2022/11/03 10:34:24;;;;;;;13.60;5.13;;;;;;;;;;4997912;28;20049;-64
2022/11/03 10:37:08;;;;;;;17.70;5.55;;;;;;;;;;5031820;28;20138;-62
2022/11/03 10:39:33;;;;;;;21.10;6.10;;;;;;;;;;4981801;28;20421;-64
2022/11/03 10:41:59;;;;;;;11.73;5.60;;;;;;;;;;4981793;28;20451;-62
2022/11/03 10:44:25;;;;;;;16.25;5.03;;;;;;;;;;4981501;28;20472;-65
2022/11/03 10:47:01;;;;;;;13.90;5.30;;;;;;;;;;4997736;28;20045;-64
2022/11/03 10:49:28;;;;;;;20.97;6.13;;;;;;;;;;5031024;28;20460;-64
2022/11/03 10:51:55;;;;;;;13.65;5.35;;;;;;;;;;5009958;28;20039;-65
2022/11/03 10:54:22;;;;;;;14.57;5.30;;;;;;;;;;5017328;28;20029;-64
2022/11/03 10:56:49;;;;;;;11.50;5.20;;;;;;;;;;5016314;28;20128;-63
2022/11/03 10:59:14;;;;;;;9.85;5.05;;;;;;;;;;5017496;28;20033;-65
2022/11/03 11:01:40;;;;;;;20.20;5.83;;;;;;;;;;5033959;28;20098;-64
2022/11/03 11:04:05;;;;;;;8.23;5.05;;;;;;;;;;5014181;28;20040;-64
2022/11/03 11:06:32;;;;;;;10.45;5.78;;;;;;;;;;5002389;28;20041;-64
2022/11/03 11:09:02;;;;;;;10.57;5.13;;;;;;;;;;4997670;28;20464;-63
2022/11/03 11:11:28;;;;;;;8.07;4.90;;;;;;;;;;5013327;28;20125;-64
2022/11/03 11:14:12;;;;;;;6.30;5.00;;;;;;;;;;5013466;28;20524;-63
2022/11/03 11:16:48;;;;;;;12.93;5.07;;;;;;;;;;5013723;28;20529;-64
2022/11/03 11:19:14;;;;;;;9.52;4.88;;;;;;;;;;4997641;28;20043;-64
2022/11/03 11:21:40;;;;;;;6.97;5.27;;;;;;;;;;5014010;28;20037;-64
2022/11/03 11:24:09;;;;;;;9.90;5.57;;;;;;;;;;4997099;28;20200;-64
2022/11/03 11:26:34;;;;;;;10.32;5.10;;;;;;;;;;4980876;28;20061;-64
2022/11/03 11:29:07;;;;;;;10.90;5.28;;;;;;;;;;5013487;28;20077;-65
2022/11/03 11:31:33;;;;;;;10.93;5.83;;;;;;;;;;4997377;28;20060;-63
2022/11/03 11:34:08;;;;;;;12.70;5.55;;;;;;;;;;4997109;28;20049;-64
2022/11/03 11:36:37;;;;;;;8.33;5.37;;;;;;;;;;5012949;28;20069;-68
2022/11/03 11:39:03;;;;;;;10.67;5.80;;;;;;;;;;4981415;28;20072;-64
2022/11/03 11:41:48;;;;;;;15.43;6.00;;;;;;;;;;5016155;28;20120;-64
2022/11/03 11:44:32;;;;;;;12.40;5.13;;;;;;;;;;4998030;28;20037;-64
2022/11/03 11:46:58;;;;;;;10.57;5.33;;;;;;;;;;5013198;28;20395;-63
2022/11/03 11:49:23;;;;;;;8.63;4.93;;;;;;;;;;5013220;28;20048;-70
2022/11/03 11:51:50;;;;;;;9.20;5.10;;;;;;;;;;4980847;28;20490;-63
2022/11/03 11:54:17;;;;;;;9.07;4.87;;;;;;;;;;5013351;28;20040;-64
2022/11/03 11:56:44;;;;;;;13.37;5.00;;;;;;;;;;4980833;28;20096;-63
2022/11/03 11:59:21;;;;;;;7.23;4.40;;;;;;;;;;4981282;28;20041;-64
2022/11/03 12:01:51;;;;;;;9.73;5.10;;;;;;;;;;4980349;28;20033;-64
2022/11/03 12:04:19;;;;;;;13.03;4.80;;;;;;;;;;5011724;28;20065;-65
2022/11/03 12:06:44;;;;;;;9.17;4.63;;;;;;;;;;4996005;28;20040;-64
2022/11/03 12:09:16;;;;;;;11.87;7.87;;;;;;;;;;4996621;28;20046;-65
2022/11/03 12:11:42;;;;;;;8.13;5.27;;;;;;;;;;4976240;28;20089;-64
2022/11/03 12:14:23;;;;;;;12.93;5.00;;;;;;;;;;4993664;28;20162;-63
2022/11/03 12:16:49;;;;;;;11.60;4.60;;;;;;;;;;5011008;28;20038;-64
2022/11/03 12:19:33;;;;;;;10.90;5.20;;;;;;;;;;4993601;28;20488;-64
2022/11/03 12:21:59;;;;;;;7.70;4.40;;;;;;;;;;4961430;28;20484;-63
2022/11/03 12:24:48;;;;;;;10.63;4.97;;;;;;;;;;4977280;28;20040;-64
2022/11/03 12:27:16;;;;;;;7.03;4.70;;;;;;;;;;4967218;28;20041;-64
2022/11/03 12:29:42;;;;;;;11.20;4.47;;;;;;;;;;4993393;28;20140;-64
2022/11/03 12:32:08;;;;;;;19.83;6.57;;;;;;;;;;4993529;28;20140;-64
2022/11/03 12:34:34;;;;;;;10.23;4.73;;;;;;;;;;4991488;28;20089;-64
2022/11/03 12:36:59;;;;;;;8.37;4.80;;;;;;;;;;4993556;28;20426;-64
2022/11/03 12:39:26;;;;;;;10.27;4.53;;;;;;;;;;4977185;28;20030;-63
2022/11/03 12:41:52;;;;;;;23.40;5.23;;;;;;;;;;4977076;28;20030;-64
2022/11/03 12:44:17;;;;;;;9.47;4.53;;;;;;;;;;4993366;28;20060;-64
2022/11/03 12:46:43;;;;;;;9.43;4.67;;;;;;;;;;4961398;28;20033;-64
2022/11/03 12:49:08;;;;;;;11.93;5.07;;;;;;;;;;4979849;28;20037;-64
2022/11/03 12:51:34;;;;;;;13.50;5.10;;;;;;;;;;4997045;28;20033;-63
2022/11/03 12:53:59;;;;;;;9.87;5.60;;;;;;;;;;5013914;28;20480;-62
2022/11/03 12:56:25;;;;;;;16.17;5.00;;;;;;;;;;4970138;28;20364;-64
2022/11/03 12:58:50;;;;;;;9.63;4.60;;;;;;;;;;5035769;28;20037;-63
2022/11/03 13:01:17;;;;;;;13.37;4.90;;;;;;;;;;5053477;28;20095;-63
2022/11/03 13:03:42;;;;;;;15.60;5.33;;;;;;;;;;5036542;28;20033;-64
2022/11/03 13:06:10;;;;;;;13.30;5.90;;;;;;;;;;5053833;28;20036;-64
2022/11/03 13:08:36;;;;;;;10.60;5.80;;;;;;;;;;5035628;28;20068;-63
2022/11/03 13:11:03;;;;;;;16.17;5.80;;;;;;;;;;5035489;28;20127;-64
2022/11/03 13:13:31;;;;;;;9.23;5.20;;;;;;;;;;5018991;28;20487;-64
2022/11/03 13:15:57;;;;;;;7.83;5.33;;;;;;;;;;5035577;28;20037;-64
2022/11/03 13:18:22;;;;;;;10.60;5.40;;;;;;;;;;5035910;28;20039;-64
2022/11/03 13:20:50;;;;;;;12.87;5.53;;;;;;;;;;5018966;28;20529;-63
2022/11/03 13:23:16;;;;;;;15.40;6.17;;;;;;;;;;5053166;28;20052;-64
2022/11/03 13:25:42;;;;;;;10.03;5.90;;;;;;;;;;5019117;28;20467;-63
2022/11/03 13:28:07;;;;;;;13.60;5.83;;;;;;;;;;5035370;28;20537;-64
2022/11/03 13:30:33;;;;;;;16.27;5.73;;;;;;;;;;5018930;28;20434;-64
2022/11/03 13:32:58;;;;;;;12.47;5.57;;;;;;;;;;5035318;28;20102;-64
2022/11/03 13:35:24;;;;;;;12.50;5.97;;;;;;;;;;5018596;28;20045;-63
2022/11/03 13:37:50;;;;;;;18.37;5.80;;;;;;;;;;5018945;28;20059;-64
2022/11/03 13:40:15;;;;;;;10.63;6.00;;;;;;;;;;5035168;28;20033;-63
2022/11/03 13:42:41;;;;;;;13.27;5.60;;;;;;;;;;5052999;28;20460;-63
2022/11/03 13:45:07;;;;;;;11.93;5.73;;;;;;;;;;5034000;28;20048;-64
2022/11/03 13:47:33;;;;;;;14.47;5.97;;;;;;;;;;4999038;28;20393;-64
2022/11/03 13:49:59;;;;;;;15.40;5.90;;;;;;;;;;5015235;28;20053;-64
2022/11/03 13:52:28;;;;;;;10.47;5.43;;;;;;;;;;5015046;28;20388;-63
2022/11/03 13:54:54;;;;;;;13.47;6.20;;;;;;;;;;4998778;28;20049;-64
2022/11/03 13:57:22;;;;;;;10.13;6.20;;;;;;;;;;5014909;28;20483;-65
2022/11/03 13:59:47;;;;;;;14.03;6.50;;;;;;;;;;4982231;28;20090;-70
2022/11/03 14:02:13;;;;;;;9.53;5.97;;;;;;;;;;4984605;28;20053;-64
2022/11/03 14:04:38;;;;;;;16.97;5.93;;;;;;;;;;4997513;28;20384;-64
2022/11/03 14:07:04;;;;;;;12.67;6.17;;;;;;;;;;4981863;28;20833;-65
2022/11/03 14:09:30;;;;;;;12.97;5.80;;;;;;;;;;4982426;28;20349;-65
2022/11/03 14:14:39;;;;;;;17.57;7.20;;;;;;;;;;4998691;28;20041;-65
2022/11/03 14:17:05;;;;;;;16.57;7.70;;;;;;;;;;4982396;28;20379;-65
2022/11/03 14:19:31;;;;;;;9.60;6.60;;;;;;;;;;5014578;28;20041;-65
2022/11/03 14:21:56;;;;;;;14.00;6.20;;;;;;;;;;4998291;28;20084;-65
2022/11/03 14:24:22;;;;;;;10.13;6.43;;;;;;;;;;4982335;28;20463;-65
2022/11/03 14:26:47;;;;;;;10.73;6.23;;;;;;;;;;4998054;28;20037;-65
2022/11/03 14:29:13;;;;;;;8.63;6.20;;;;;;;;;;4998799;28;20042;-63
2022/11/03 14:31:38;;;;;;;21.77;6.23;;;;;;;;;;4998170;28;20046;-65
2022/11/03 14:34:04;;;;;;;16.30;6.53;;;;;;;;;;5031132;28;20058;-65
2022/11/03 14:36:29;;;;;;;11.43;5.70;;;;;;;;;;5003367;28;20037;-64
2022/11/03 14:38:55;;;;;;;13.43;5.70;;;;;;;;;;5005813;28;20391;-65
2022/11/03 14:44:05;;;;;;;9.17;5.80;;;;;;;;;;5010582;28;20614;-65
2022/11/03 14:46:31;;;;;;;12.97;6.30;;;;;;;;;;4990643;28;20030;-65
2022/11/03 14:48:56;;;;;;;9.90;6.80;;;;;;;;;;4982690;28;20104;-65
2022/11/03 14:51:22;;;;;;;10.73;5.40;;;;;;;;;;5012532;28;20115;-65
2022/11/03 14:53:48;;;;;;;9.07;5.60;;;;;;;;;;4981396;28;20087;-65
2022/11/03 14:56:13;;;;;;;15.70;5.93;;;;;;;;;;5015126;28;20456;-65
2022/11/03 14:58:39;;;;;;;11.30;5.90;;;;;;;;;;5003667;28;20135;-65
2022/11/03 15:01:05;;;;;;;8.57;5.80;;;;;;;;;;4991855;28;20035;-65
2022/11/03 15:03:31;;;;;;;12.87;5.70;;;;;;;;;;5011587;28;20056;-65